createdAt,value
2023-03-12T00:01:30.916Z,12.40
2023-03-12T00:03:58.083Z,12.40
2023-03-12T00:06:25.272Z,12.30
2023-03-12T00:08:53.920Z,12.30
2023-03-12T00:11:25.492Z,12.30
2023-03-12T00:13:54.522Z,12.40
2023-03-12T00:16:24.562Z,12.40
2023-03-12T00:18:53.325Z,12.30
2023-03-12T00:21:21.992Z,12.30
2023-03-12T00:23:50.084Z,12.20
2023-03-12T00:26:18.352Z,12.20
2023-03-12T00:28:45.404Z,12.10
2023-03-12T00:31:20.319Z,12.10
2023-03-12T00:33:49.984Z,12.10
2023-03-12T00:36:18.739Z,12.10
2023-03-12T00:38:45.935Z,12.10
2023-03-12T00:41:13.076Z,12.10
2023-03-12T00:43:40.027Z,12.10
2023-03-12T00:46:07.307Z,12.20
2023-03-12T00:48:34.229Z,12.20
2023-03-12T00:51:01.225Z,12.20
2023-03-12T00:53:28.160Z,12.20
2023-03-12T00:55:55.066Z,12.20
2023-03-12T00:58:22.014Z,12.10
2023-03-12T01:00:49.084Z,12.10
2023-03-12T01:03:16.300Z,12.20
2023-03-12T01:05:43.329Z,12.10
2023-03-12T01:08:11.325Z,12.10
2023-03-12T01:10:42.576Z,12.10
2023-03-12T01:13:09.568Z,12.10
2023-03-12T01:15:36.720Z,12.10
2023-03-12T01:18:03.797Z,12.20
2023-03-12T01:20:30.732Z,12.20
2023-03-12T01:22:57.647Z,12.20
2023-03-12T01:25:24.588Z,12.20
2023-03-12T01:27:52.035Z,12.10
2023-03-12T01:30:19.077Z,12.10
2023-03-12T01:32:46.199Z,12.10
2023-03-12T01:35:13.377Z,12.10
2023-03-12T01:37:40.609Z,12.10
2023-03-12T01:40:07.975Z,12.10
2023-03-12T01:42:34.863Z,12.20
2023-03-12T01:45:03.503Z,12.20
2023-03-12T01:47:32.271Z,12.20
2023-03-12T01:50:03.157Z,12.30
2023-03-12T01:52:35.575Z,12.30
2023-03-12T01:55:05.736Z,12.40
2023-03-12T01:57:48.560Z,12.40
2023-03-12T02:00:20.096Z,12.50
2023-03-12T02:02:49.748Z,12.60
2023-03-12T02:05:24.093Z,12.60
2023-03-12T02:07:51.467Z,12.70
2023-03-12T02:10:18.516Z,12.60
2023-03-12T02:12:45.668Z,12.70
2023-03-12T02:15:12.818Z,12.60
2023-03-12T02:17:40.606Z,12.60
2023-03-12T02:20:17.139Z,12.60
2023-03-12T02:22:49.633Z,12.60
2023-03-12T02:25:36.027Z,12.60
2023-03-12T02:28:07.382Z,12.70
2023-03-12T02:30:36.681Z,12.70
2023-03-12T02:33:07.672Z,12.70
2023-03-12T02:35:35.225Z,12.70
2023-03-12T02:38:22.806Z,12.70
2023-03-12T02:40:51.331Z,12.70
2023-03-12T02:43:21.660Z,12.70
2023-03-12T02:45:49.405Z,12.70
2023-03-12T02:48:16.329Z,12.70
2023-03-12T02:50:44.196Z,12.70
2023-03-12T02:53:11.119Z,12.70
2023-03-12T02:55:38.135Z,12.70
2023-03-12T02:58:05.021Z,12.70
2023-03-12T03:00:32.311Z,12.70
2023-03-12T03:03:00.977Z,12.70
2023-03-12T03:05:28.008Z,12.60
2023-03-12T03:07:55.863Z,12.60
2023-03-12T03:10:22.860Z,12.50
2023-03-12T03:12:50.189Z,12.40
2023-03-12T03:15:17.657Z,12.40
2023-03-12T03:17:45.215Z,12.30
2023-03-12T03:20:12.474Z,12.30
2023-03-12T03:22:39.527Z,12.30
2023-03-12T03:25:07.772Z,12.30
2023-03-12T03:27:34.937Z,12.30
2023-03-12T03:30:02.344Z,12.40
2023-03-12T03:32:31.827Z,12.30
2023-03-12T03:34:58.932Z,12.30
2023-03-12T03:37:25.915Z,12.30
2023-03-12T03:39:52.876Z,12.30
2023-03-12T03:42:19.945Z,12.30
2023-03-12T03:44:46.868Z,12.30
2023-03-12T03:47:14.293Z,12.30
2023-03-12T03:49:41.348Z,12.20
2023-03-12T03:52:08.489Z,12.20
2023-03-12T03:54:36.558Z,12.20
2023-03-12T03:57:05.555Z,12.20
2023-03-12T03:59:32.601Z,12.20
2023-03-12T04:01:59.703Z,12.20
2023-03-12T04:04:26.642Z,12.10
2023-03-12T04:06:54.156Z,12.10
2023-03-12T04:09:22.018Z,12.10
2023-03-12T04:11:49.017Z,12.10
2023-03-12T04:14:20.773Z,12.10
2023-03-12T04:16:47.745Z,12.10
2023-03-12T04:19:14.752Z,12.10
2023-03-12T04:21:41.822Z,12.10
2023-03-12T04:24:14.769Z,12.10
2023-03-12T04:26:41.892Z,12.10
2023-03-12T04:29:08.937Z,12.10
2023-03-12T04:31:36.406Z,12.10
2023-03-12T04:34:03.581Z,12.10
2023-03-12T04:36:30.996Z,12.00
2023-03-12T04:38:59.142Z,12.00
2023-03-12T04:41:30.802Z,12.00
2023-03-12T04:44:04.415Z,11.90
2023-03-12T04:46:33.276Z,11.90
2023-03-12T04:49:02.667Z,11.80
2023-03-12T04:51:31.763Z,11.80
2023-03-12T04:53:59.581Z,11.70
2023-03-12T04:56:27.209Z,11.70
2023-03-12T04:58:54.330Z,11.70
2023-03-12T05:01:28.291Z,11.60
2023-03-12T05:03:55.579Z,11.60
2023-03-12T05:06:24.184Z,11.50
2023-03-12T05:08:51.919Z,11.50
2023-03-12T05:11:19.658Z,11.50
2023-03-12T05:13:47.062Z,11.50
2023-03-12T05:16:15.427Z,11.50
2023-03-12T05:18:43.676Z,11.40
2023-03-12T05:21:18.258Z,11.50
2023-03-12T05:23:46.652Z,11.50
2023-03-12T05:26:28.029Z,11.50
2023-03-12T05:29:03.666Z,11.40
2023-03-12T05:31:33.230Z,11.30
2023-03-12T05:34:01.675Z,11.40
2023-03-12T05:36:28.966Z,11.40
2023-03-12T05:38:56.300Z,11.40
2023-03-12T05:41:28.086Z,11.30
2023-03-12T05:43:59.324Z,11.30
2023-03-12T05:46:28.593Z,11.20
2023-03-12T05:48:55.873Z,11.10
2023-03-12T05:51:23.405Z,11.10
2023-03-12T05:53:50.570Z,11.10
2023-03-12T05:56:18.297Z,11.00
2023-03-12T05:58:48.107Z,10.90
2023-03-12T06:01:18.306Z,10.80
2023-03-12T06:03:45.873Z,10.70
2023-03-12T06:06:12.937Z,10.60
2023-03-12T06:08:41.610Z,10.60
2023-03-12T06:11:10.166Z,10.60
2023-03-12T06:13:37.189Z,10.60
2023-03-12T06:16:10.992Z,10.60
2023-03-12T06:18:38.477Z,10.60
2023-03-12T06:21:12.582Z,10.70
2023-03-12T06:23:40.943Z,11.30
2023-03-12T06:26:11.165Z,12.00
2023-03-12T06:28:38.525Z,12.40
2023-03-12T06:31:05.818Z,12.70
2023-03-12T06:33:34.200Z,13.00
2023-03-12T06:36:03.407Z,13.20
2023-03-12T06:38:30.326Z,13.40
2023-03-12T06:41:02.208Z,13.60
2023-03-12T06:43:31.147Z,13.90
2023-03-12T06:46:00.144Z,14.20
2023-03-12T06:48:28.474Z,14.50
2023-03-12T06:50:55.513Z,14.90
2023-03-12T06:53:23.217Z,15.60
2023-03-12T06:55:51.237Z,16.70
2023-03-12T06:58:18.852Z,17.70
2023-03-12T07:00:45.709Z,18.80
2023-03-12T07:03:13.424Z,19.80
2023-03-12T07:05:43.289Z,20.60
2023-03-12T07:08:10.403Z,21.20
2023-03-12T07:10:37.248Z,21.70
2023-03-12T07:13:04.270Z,22.20
2023-03-12T07:15:31.143Z,22.70
2023-03-12T07:18:01.707Z,22.90
2023-03-12T07:20:28.551Z,23.00
2023-03-12T07:22:55.368Z,23.10
2023-03-12T07:25:22.322Z,23.20
2023-03-12T07:27:49.147Z,23.10
2023-03-12T07:30:16.052Z,23.20
2023-03-12T07:32:43.017Z,23.30
2023-03-12T07:35:10.096Z,23.00
2023-03-12T07:37:36.954Z,23.00
2023-03-12T07:40:07.347Z,23.00
2023-03-12T07:42:34.441Z,22.90
2023-03-12T07:45:01.449Z,22.80
2023-03-12T07:47:28.456Z,22.70
2023-03-12T07:49:55.352Z,22.40
2023-03-12T07:52:23.647Z,22.00
2023-03-12T07:54:52.758Z,21.50
2023-03-12T07:57:19.947Z,21.00
2023-03-12T07:59:48.230Z,20.80
2023-03-12T08:02:15.192Z,20.80
2023-03-12T08:04:42.144Z,20.70
2023-03-12T08:07:09.481Z,20.70
2023-03-12T08:09:38.673Z,20.90
2023-03-12T08:12:08.612Z,21.30
2023-03-12T08:14:35.838Z,21.70
2023-03-12T08:17:02.805Z,22.10
2023-03-12T08:19:29.601Z,22.80
2023-03-12T08:21:58.012Z,23.10
2023-03-12T08:24:24.826Z,23.30
2023-03-12T08:26:51.612Z,24.00
2023-03-12T08:29:18.445Z,24.40
2023-03-12T08:32:01.614Z,25.00
2023-03-12T08:34:30.802Z,25.20
2023-03-12T08:36:57.730Z,25.30
2023-03-12T08:39:24.579Z,25.90
2023-03-12T08:41:55.305Z,26.50
2023-03-12T08:44:22.825Z,27.10
2023-03-12T08:46:49.736Z,27.00
2023-03-12T08:49:16.782Z,27.30
2023-03-12T08:51:43.647Z,27.20
2023-03-12T08:54:10.483Z,26.80
2023-03-12T08:56:41.851Z,26.30
2023-03-12T08:59:09.345Z,26.00
2023-03-12T09:01:36.160Z,26.40
2023-03-12T09:04:03.818Z,26.60
2023-03-12T09:06:30.811Z,26.50
2023-03-12T09:08:57.764Z,26.60
2023-03-12T09:11:24.647Z,27.20
2023-03-12T09:14:15.250Z,27.50
2023-03-12T09:16:38.324Z,27.50
2023-03-12T09:19:05.265Z,27.40
2023-03-12T09:21:32.121Z,27.30
2023-03-12T09:23:58.983Z,27.20
2023-03-12T09:26:25.865Z,27.40
2023-03-12T09:28:52.712Z,27.70
2023-03-12T09:31:20.795Z,28.00
2023-03-12T09:33:47.658Z,27.70
2023-03-12T09:36:14.474Z,27.60
2023-03-12T09:38:41.372Z,28.00
2023-03-12T09:41:16.912Z,28.20
2023-03-12T09:43:47.706Z,28.30
2023-03-12T09:46:21.206Z,28.10
2023-03-12T09:48:48.173Z,27.70
2023-03-12T09:51:24.245Z,27.50
2023-03-12T09:53:56.177Z,27.90
2023-03-12T09:56:23.679Z,28.60
2023-03-12T09:58:54.544Z,29.00
2023-03-12T10:01:27.480Z,29.30
2023-03-12T10:04:09.479Z,29.50
2023-03-12T10:06:49.225Z,29.30
2023-03-12T10:09:25.087Z,29.20
2023-03-12T10:11:57.736Z,29.10
2023-03-12T10:14:42.771Z,29.10
2023-03-12T10:17:21.170Z,28.90
2023-03-12T10:20:02.659Z,29.00
2023-03-12T10:22:32.248Z,29.60
2023-03-12T10:25:05.930Z,29.80
2023-03-12T10:27:35.689Z,29.50
2023-03-12T10:30:03.788Z,29.60
2023-03-12T10:32:39.032Z,29.70
2023-03-12T10:35:16.721Z,29.60
2023-03-12T10:38:02.754Z,29.60
2023-03-12T10:40:31.490Z,29.50
2023-03-12T10:42:58.345Z,29.50
2023-03-12T10:45:35.355Z,29.40
2023-03-12T10:48:03.548Z,29.20
2023-03-12T10:50:32.275Z,29.00
2023-03-12T10:53:17.697Z,29.00
2023-03-12T10:55:57.267Z,29.40
2023-03-12T10:58:25.240Z,29.90
2023-03-12T11:00:59.901Z,29.90
2023-03-12T11:03:27.229Z,29.80
2023-03-12T11:05:55.461Z,29.80
2023-03-12T11:08:33.424Z,29.40
2023-03-12T11:11:01.339Z,29.50
2023-03-12T11:13:38.731Z,29.60
2023-03-12T11:16:17.812Z,29.70
2023-03-12T11:18:59.917Z,29.70
2023-03-12T11:21:27.133Z,29.80
2023-03-12T11:23:57.000Z,29.70
2023-03-12T11:26:25.552Z,29.90
2023-03-12T11:28:55.425Z,29.70
2023-03-12T11:31:26.016Z,29.70
2023-03-12T11:33:56.143Z,29.80
2023-03-12T11:36:26.000Z,30.10
2023-03-12T11:39:10.348Z,30.10
2023-03-12T11:41:37.139Z,30.20
2023-03-12T11:44:11.857Z,30.50
2023-03-12T11:47:04.796Z,30.70
2023-03-12T11:49:37.935Z,30.80
2023-03-12T11:52:28.463Z,30.40
2023-03-12T11:55:16.325Z,29.50
2023-03-12T11:57:58.565Z,29.10
2023-03-12T12:00:27.644Z,29.50
2023-03-12T12:03:13.295Z,30.30
2023-03-12T12:05:49.244Z,31.10
2023-03-12T12:08:28.250Z,31.70
2023-03-12T12:11:15.328Z,32.00
2023-03-12T12:13:57.419Z,32.10
2023-03-12T12:16:30.104Z,32.00
2023-03-12T12:19:15.410Z,32.20
2023-03-12T12:21:57.262Z,32.20
2023-03-12T12:24:35.057Z,32.20
2023-03-12T12:27:05.719Z,32.90
2023-03-12T12:29:36.230Z,32.50
2023-03-12T12:32:05.658Z,31.80
2023-03-12T12:34:32.503Z,30.90
2023-03-12T12:37:17.865Z,30.10
2023-03-12T12:40:08.709Z,29.70
2023-03-12T12:42:41.386Z,29.20
2023-03-12T12:45:12.571Z,29.30
2023-03-12T12:47:45.155Z,29.90
2023-03-12T12:50:17.454Z,30.50
2023-03-12T12:52:45.001Z,30.20
2023-03-12T12:55:11.765Z,29.70
2023-03-12T12:57:44.693Z,29.40
2023-03-12T13:00:20.432Z,29.50
2023-03-12T13:02:48.062Z,29.60
2023-03-12T13:05:41.188Z,29.30
2023-03-12T13:08:10.946Z,28.80
2023-03-12T13:10:48.481Z,28.60
2023-03-12T13:13:26.239Z,28.90
2023-03-12T13:16:14.049Z,29.00
2023-03-12T13:18:40.949Z,28.70
2023-03-12T13:21:24.292Z,28.00
2023-03-12T13:24:00.478Z,27.40
2023-03-12T13:26:37.943Z,27.20
2023-03-12T13:29:23.588Z,27.60
2023-03-12T13:31:50.468Z,27.80
2023-03-12T13:34:17.287Z,27.90
2023-03-12T13:36:45.085Z,27.70
2023-03-12T13:39:15.023Z,27.70
2023-03-12T13:41:44.546Z,27.80
2023-03-12T13:44:29.499Z,27.60
2023-03-12T13:47:11.662Z,27.70
2023-03-12T13:49:43.553Z,27.60
2023-03-12T13:52:16.609Z,27.40
2023-03-12T13:54:45.698Z,27.40
2023-03-12T13:57:24.761Z,27.30
2023-03-12T13:59:52.358Z,27.30
2023-03-12T14:02:30.982Z,27.20
2023-03-12T14:05:09.673Z,27.50
2023-03-12T14:07:36.682Z,27.40
2023-03-12T14:10:09.371Z,27.10
2023-03-12T14:12:48.412Z,26.60
2023-03-12T14:15:19.402Z,26.50
2023-03-12T14:17:46.528Z,26.80
2023-03-12T14:20:21.447Z,26.90
2023-03-12T14:22:52.945Z,26.80
2023-03-12T14:25:31.748Z,26.60
2023-03-12T14:27:58.859Z,26.40
2023-03-12T14:30:30.875Z,26.10
2023-03-12T14:33:01.271Z,25.80
2023-03-12T14:35:33.371Z,25.60
2023-03-12T14:38:07.319Z,25.70
2023-03-12T14:40:46.246Z,25.60
2023-03-12T14:43:27.065Z,25.40
2023-03-12T14:45:55.015Z,25.40
2023-03-12T14:48:22.972Z,25.30
2023-03-12T14:50:50.004Z,25.00
2023-03-12T14:53:23.749Z,24.70
2023-03-12T14:56:00.135Z,24.40
2023-03-12T14:58:27.093Z,24.30
2023-03-12T15:00:58.780Z,24.30
2023-03-12T15:03:27.315Z,24.30
2023-03-12T15:05:54.152Z,24.00
2023-03-12T15:08:21.377Z,23.70
2023-03-12T15:10:50.124Z,23.60
2023-03-12T15:13:17.692Z,23.30
2023-03-12T15:15:46.889Z,23.10
2023-03-12T15:18:16.156Z,22.90
2023-03-12T15:20:43.411Z,22.90
2023-03-12T15:23:12.077Z,22.90
2023-03-12T15:25:39.310Z,22.60
2023-03-12T15:28:15.399Z,22.00
2023-03-12T15:30:42.658Z,21.60
2023-03-12T15:33:09.601Z,21.50
2023-03-12T15:35:41.512Z,21.50
2023-03-12T15:38:15.622Z,21.40
2023-03-12T15:40:47.901Z,21.30
2023-03-12T15:43:17.753Z,21.20
2023-03-12T15:45:44.980Z,21.20
2023-03-12T15:48:16.203Z,21.00
2023-03-12T15:50:43.708Z,20.80
2023-03-12T15:53:13.516Z,20.70
2023-03-12T15:55:41.896Z,20.40
2023-03-12T15:58:27.569Z,20.00
2023-03-12T16:00:55.158Z,19.50
2023-03-12T16:03:22.531Z,18.80
2023-03-12T16:05:50.373Z,18.30
2023-03-12T16:08:23.945Z,17.80
2023-03-12T16:10:50.784Z,17.50
2023-03-12T16:13:21.306Z,17.10
2023-03-12T16:15:48.590Z,16.80
2023-03-12T16:18:16.836Z,16.60
2023-03-12T16:20:44.378Z,16.40
2023-03-12T16:23:11.387Z,16.20
2023-03-12T16:25:38.673Z,16.10
2023-03-12T16:28:06.177Z,16.00
2023-03-12T16:30:34.460Z,15.80
2023-03-12T16:33:02.154Z,15.70
2023-03-12T16:35:31.281Z,15.60
2023-03-12T16:38:01.323Z,15.50
2023-03-12T16:40:33.707Z,15.40
2023-03-12T16:43:03.835Z,15.30
2023-03-12T16:45:34.001Z,15.20
2023-03-12T16:48:02.088Z,15.10
2023-03-12T16:50:29.189Z,15.10
2023-03-12T16:52:56.573Z,15.00
2023-03-12T16:55:25.265Z,14.90
2023-03-12T16:58:00.275Z,14.80
2023-03-12T17:00:28.450Z,14.70
2023-03-12T17:02:57.882Z,14.70
2023-03-12T17:05:25.736Z,14.60
2023-03-12T17:07:52.534Z,14.60
2023-03-12T17:10:19.455Z,14.50
2023-03-12T17:12:48.362Z,14.50
2023-03-12T17:15:22.665Z,14.40
2023-03-12T17:17:50.195Z,14.30
2023-03-12T17:20:18.319Z,14.20
2023-03-12T17:22:45.433Z,14.20
2023-03-12T17:25:20.432Z,14.10
2023-03-12T17:27:47.455Z,14.00
2023-03-12T17:30:14.656Z,13.90
2023-03-12T17:32:41.614Z,13.80
2023-03-12T17:35:08.894Z,13.70
2023-03-12T17:37:36.048Z,13.60
2023-03-12T17:40:09.249Z,13.50
2023-03-12T17:42:37.303Z,13.50
2023-03-12T17:45:05.750Z,13.40
2023-03-12T17:47:32.824Z,13.30
2023-03-12T17:49:59.712Z,13.20
2023-03-12T17:52:26.645Z,13.10
2023-03-12T17:54:53.664Z,13.00
2023-03-12T17:57:20.547Z,12.90
2023-03-12T17:59:47.461Z,12.80
2023-03-12T18:02:14.614Z,12.70
2023-03-12T18:04:41.601Z,12.70
2023-03-12T18:07:09.089Z,12.60
2023-03-12T18:09:36.382Z,12.60
2023-03-12T18:12:03.568Z,12.50
2023-03-12T18:14:30.500Z,12.50
2023-03-12T18:16:59.153Z,12.50
2023-03-12T18:19:27.258Z,12.40
2023-03-12T18:21:54.162Z,12.30
2023-03-12T18:24:21.053Z,12.20
2023-03-12T18:26:50.506Z,12.20
2023-03-12T18:29:17.643Z,12.10
2023-03-12T18:31:44.725Z,12.00
2023-03-12T18:34:11.750Z,12.00
2023-03-12T18:36:38.732Z,12.00
2023-03-12T18:39:06.572Z,11.90
2023-03-12T18:41:33.705Z,11.90
2023-03-12T18:44:00.804Z,11.80
2023-03-12T18:46:28.330Z,11.80
2023-03-12T18:48:55.260Z,11.80
2023-03-12T18:51:22.261Z,11.80
2023-03-12T18:53:49.268Z,11.80
2023-03-12T18:56:16.250Z,11.90
2023-03-12T18:58:43.169Z,11.90
2023-03-12T19:01:10.809Z,11.90
2023-03-12T19:03:37.809Z,11.90
2023-03-12T19:06:12.901Z,11.90
2023-03-12T19:08:40.699Z,11.90
2023-03-12T19:11:13.691Z,11.90
2023-03-12T19:13:41.529Z,12.00
2023-03-12T19:16:10.511Z,11.90
2023-03-12T19:18:38.840Z,11.80
2023-03-12T19:21:07.802Z,11.80
2023-03-12T19:23:35.653Z,11.80
2023-03-12T19:26:03.152Z,11.70
2023-03-12T19:28:31.194Z,11.70
2023-03-12T19:31:02.466Z,11.70
2023-03-12T19:33:30.105Z,11.60
2023-03-12T19:35:57.556Z,11.60
2023-03-12T19:38:24.716Z,11.50
2023-03-12T19:40:56.361Z,11.50
2023-03-12T19:43:23.776Z,11.50
2023-03-12T19:45:52.307Z,11.40
2023-03-12T19:48:19.255Z,11.40
2023-03-12T19:50:46.242Z,11.30
2023-03-12T19:53:13.475Z,11.30
2023-03-12T19:55:40.487Z,11.30
2023-03-12T19:58:08.395Z,11.30
2023-03-12T20:00:35.398Z,11.20
2023-03-12T20:03:02.550Z,11.20
2023-03-12T20:05:29.715Z,11.20
2023-03-12T20:07:56.638Z,11.10
2023-03-12T20:10:23.805Z,11.20
2023-03-12T20:12:50.730Z,11.10
2023-03-12T20:15:18.328Z,11.10
2023-03-12T20:17:45.345Z,11.10
2023-03-12T20:20:12.486Z,11.00
2023-03-12T20:22:39.539Z,11.00
2023-03-12T20:25:07.123Z,11.00
2023-03-12T20:27:34.372Z,11.00
2023-03-12T20:30:03.523Z,10.90
2023-03-12T20:32:30.862Z,10.80
2023-03-12T20:34:57.849Z,10.80
2023-03-12T20:37:24.798Z,10.70
2023-03-12T20:39:52.574Z,10.70
2023-03-12T20:42:19.425Z,10.60
2023-03-12T20:44:46.402Z,10.60
2023-03-12T20:47:13.315Z,10.60
2023-03-12T20:49:40.262Z,10.60
2023-03-12T20:52:07.260Z,10.50
2023-03-12T20:54:34.166Z,10.50
2023-03-12T20:57:01.118Z,10.50
2023-03-12T20:59:28.019Z,10.50
2023-03-12T21:01:55.345Z,10.50
2023-03-12T21:04:22.286Z,10.40
2023-03-12T21:06:51.706Z,10.40
2023-03-12T21:09:18.794Z,10.30
2023-03-12T21:11:45.726Z,10.30
2023-03-12T21:14:12.675Z,10.20
2023-03-12T21:16:39.635Z,10.20
2023-03-12T21:19:06.700Z,10.20
2023-03-12T21:21:36.287Z,10.20
2023-03-12T21:24:03.347Z,10.20
2023-03-12T21:26:30.327Z,10.20
2023-03-12T21:28:57.241Z,10.20
2023-03-12T21:31:26.644Z,10.20
2023-03-12T21:33:59.246Z,10.10
2023-03-12T21:36:26.505Z,10.10
2023-03-12T21:38:53.425Z,10.10
2023-03-12T21:41:21.437Z,10.10
2023-03-12T21:43:48.593Z,10.10
2023-03-12T21:46:18.828Z,10.10
2023-03-12T21:48:47.798Z,10.10
2023-03-12T21:51:16.472Z,10.10
2023-03-12T21:53:44.513Z,10.00
2023-03-12T21:56:12.086Z,10.10
2023-03-12T21:58:39.126Z,10.00
2023-03-12T22:01:15.357Z,10.00
2023-03-12T22:03:44.599Z,10.00
2023-03-12T22:06:12.703Z,10.00
2023-03-12T22:08:40.210Z,10.00
2023-03-12T22:11:08.316Z,9.90
2023-03-12T22:13:35.757Z,9.90
2023-03-12T22:16:06.809Z,9.90
2023-03-12T22:18:37.122Z,9.90
2023-03-12T22:21:05.368Z,9.80
2023-03-12T22:23:33.565Z,9.80
2023-03-12T22:26:07.440Z,9.80
2023-03-12T22:28:34.426Z,9.70
2023-03-12T22:31:04.348Z,9.70
2023-03-12T22:33:31.627Z,9.60
2023-03-12T22:35:58.986Z,9.60
2023-03-12T22:38:26.052Z,9.60
2023-03-12T22:40:55.502Z,9.60
2023-03-12T22:43:24.826Z,9.60
2023-03-12T22:45:55.055Z,9.60
2023-03-12T22:48:21.994Z,9.60
2023-03-12T22:50:55.370Z,9.50
2023-03-12T22:53:22.966Z,9.50
2023-03-12T22:55:59.977Z,9.40
2023-03-12T22:58:27.692Z,9.40
2023-03-12T23:01:02.927Z,9.40
2023-03-12T23:03:31.232Z,9.40
2023-03-12T23:05:58.906Z,9.40
2023-03-12T23:08:26.735Z,9.30
2023-03-12T23:10:56.733Z,9.30
2023-03-12T23:13:25.068Z,9.30
2023-03-12T23:15:52.073Z,9.30
2023-03-12T23:18:19.798Z,9.30
2023-03-12T23:20:47.104Z,9.30
2023-03-12T23:23:16.756Z,9.30
2023-03-12T23:25:53.166Z,9.30
2023-03-12T23:28:20.181Z,9.30
2023-03-12T23:31:02.203Z,9.20
2023-03-12T23:33:30.018Z,9.20
2023-03-12T23:36:00.360Z,9.20
2023-03-12T23:38:28.587Z,9.20
2023-03-12T23:41:13.886Z,9.20
2023-03-12T23:43:41.022Z,9.10
2023-03-12T23:46:09.606Z,9.10
2023-03-12T23:48:37.948Z,9.10
2023-03-12T23:51:05.091Z,9.10
2023-03-12T23:53:32.800Z,9.10
2023-03-12T23:56:01.619Z,9.10
2023-03-12T23:58:29.213Z,9.10
